createdAt,value
2018-04-17T00:01:49.491Z,93618.22
2018-04-17T00:04:15.879Z,93622.75
2018-04-17T00:06:42.386Z,93613.45
2018-04-17T00:09:08.847Z,93611.99
2018-04-17T00:11:35.292Z,93608.55
2018-04-17T00:14:01.793Z,93608.69
2018-04-17T00:16:28.173Z,93613.29
2018-04-17T00:18:54.621Z,93607.91
2018-04-17T00:21:20.993Z,93596.92
2018-04-17T00:23:47.449Z,93595.73
2018-04-17T00:26:13.888Z,93593.55
2018-04-17T00:28:40.341Z,93589.44
2018-04-17T00:31:06.742Z,93581.60
2018-04-17T00:33:33.150Z,93587.52
2018-04-17T00:35:59.621Z,93578.77
2018-04-17T00:38:26.130Z,93568.72
2018-04-17T00:40:52.564Z,93563.09
2018-04-17T00:43:18.993Z,93557.55
2018-04-17T00:45:45.402Z,93556.25
2018-04-17T00:48:11.891Z,93547.65
2018-04-17T00:50:38.406Z,93548.30
2018-04-17T00:53:16.937Z,93557.41
2018-04-17T00:55:43.317Z,93551.53
2018-04-17T00:58:09.633Z,93553.80
2018-04-17T01:00:35.974Z,93554.62
2018-04-17T01:03:02.356Z,93547.86
2018-04-17T01:05:28.752Z,93543.03
2018-04-17T01:07:55.231Z,93541.41
2018-04-17T01:10:21.662Z,93549.57
2018-04-17T01:12:48.021Z,93550.45
2018-04-17T01:15:14.392Z,93536.97
2018-04-17T01:17:40.876Z,93543.86
2018-04-17T01:20:07.234Z,93529.27
2018-04-17T01:22:33.624Z,93528.69
2018-04-17T01:25:00.024Z,93521.41
2018-04-17T01:27:26.334Z,93523.67
2018-04-17T01:29:53.694Z,93526.88
2018-04-17T01:32:20.146Z,93532.33
2018-04-17T01:34:46.497Z,93535.06
2018-04-17T01:37:12.879Z,93546.89
2018-04-17T01:39:39.261Z,93547.58
2018-04-17T01:42:05.586Z,93548.15
2018-04-17T01:44:32.002Z,93554.96
2018-04-17T01:46:58.421Z,93555.44
2018-04-17T01:49:24.866Z,93556.53
2018-04-17T01:51:51.298Z,93546.97
2018-04-17T01:54:17.688Z,93542.42
2018-04-17T01:56:44.000Z,93533.05
2018-04-17T01:59:10.437Z,93532.55
2018-04-17T02:01:36.937Z,93526.16
2018-04-17T02:04:03.269Z,93516.50
2018-04-17T02:06:29.665Z,93502.77
2018-04-17T02:08:56.164Z,93500.31
2018-04-17T02:11:22.546Z,93501.83
2018-04-17T02:13:48.900Z,93504.78
2018-04-17T02:16:15.304Z,93506.98
2018-04-17T02:18:41.635Z,93501.88
2018-04-17T02:21:08.025Z,93507.70
2018-04-17T02:23:34.527Z,93506.47
2018-04-17T02:26:00.883Z,93509.69
2018-04-17T02:28:27.296Z,93510.52
2018-04-17T02:30:53.742Z,93509.14
2018-04-17T02:33:20.094Z,93505.61
2018-04-17T02:35:46.520Z,93519.95
2018-04-17T02:38:13.058Z,93517.22
2018-04-17T02:40:39.430Z,93508.39
2018-04-17T02:43:05.842Z,93510.59
2018-04-17T02:45:32.215Z,93506.30
2018-04-17T02:47:58.629Z,93512.36
2018-04-17T02:50:24.973Z,93517.63
2018-04-17T02:52:51.362Z,93513.16
2018-04-17T02:55:17.700Z,93509.49
2018-04-17T02:57:44.104Z,93518.62
2018-04-17T03:00:10.506Z,93512.89
2018-04-17T03:02:36.842Z,93520.17
2018-04-17T03:05:03.250Z,93520.25
2018-04-17T03:07:29.696Z,93518.95
2018-04-17T03:09:56.032Z,93523.73
2018-04-17T03:12:22.434Z,93521.63
2018-04-17T03:14:48.817Z,93512.94
2018-04-17T03:17:15.198Z,93504.14
2018-04-17T03:19:41.639Z,93503.45
2018-04-17T03:22:08.013Z,93511.73
2018-04-17T03:24:34.390Z,93524.22
2018-04-17T03:27:00.727Z,93522.13
2018-04-17T03:29:27.136Z,93529.82
2018-04-17T03:31:53.552Z,93531.45
2018-04-17T03:34:20.022Z,93528.86
2018-04-17T03:36:46.506Z,93524.30
2018-04-17T03:39:12.979Z,93527.14
2018-04-17T03:41:39.512Z,93534.38
2018-04-17T03:44:05.970Z,93540.72
2018-04-17T03:46:32.341Z,93539.86
2018-04-17T03:48:58.859Z,93540.74
2018-04-17T03:51:25.281Z,93550.64
2018-04-17T03:53:51.699Z,93551.17
2018-04-17T03:56:18.153Z,93551.11
2018-04-17T03:58:44.669Z,93548.52
2018-04-17T04:01:11.215Z,93552.72
2018-04-17T04:03:37.628Z,93558.39
2018-04-17T04:06:04.013Z,93566.72
2018-04-17T04:08:30.634Z,93576.34
2018-04-17T04:10:57.065Z,93580.34
2018-04-17T04:13:23.563Z,93579.51
2018-04-17T04:15:49.989Z,93575.54
2018-04-17T04:18:28.780Z,93576.95
2018-04-17T04:21:07.342Z,93576.20
2018-04-17T04:23:46.001Z,93591.33
2018-04-17T04:26:24.585Z,93585.95
2018-04-17T04:28:51.132Z,93588.20
2018-04-17T04:31:17.658Z,93588.72
2018-04-17T04:33:45.036Z,93586.56
2018-04-17T04:36:12.285Z,93586.78
2018-04-17T04:38:38.827Z,93592.30
2018-04-17T04:41:05.286Z,93589.88
2018-04-17T04:43:31.737Z,93593.22
2018-04-17T04:45:58.198Z,93591.70
2018-04-17T04:48:24.859Z,93596.14
2018-04-17T04:50:51.561Z,93593.14
2018-04-17T04:53:17.949Z,93601.50
2018-04-17T04:55:44.342Z,93608.02
2018-04-17T04:58:10.766Z,93602.00
2018-04-17T05:00:37.271Z,93609.05
2018-04-17T05:03:03.992Z,93616.71
2018-04-17T05:05:30.431Z,93624.68
2018-04-17T05:07:56.872Z,93619.16
2018-04-17T05:10:23.312Z,93619.75
2018-04-17T05:12:49.773Z,93624.08
2018-04-17T05:15:16.230Z,93619.78
2018-04-17T05:17:42.720Z,93624.66
2018-04-17T05:20:09.152Z,93615.19
2018-04-17T05:22:35.529Z,93619.73
2018-04-17T05:25:01.922Z,93622.76
2018-04-17T05:27:28.319Z,93626.23
2018-04-17T05:29:54.673Z,93625.02
2018-04-17T05:32:21.077Z,93633.17
2018-04-17T05:34:47.517Z,93628.56
2018-04-17T05:37:13.965Z,93628.24
2018-04-17T05:39:40.513Z,93638.64
2018-04-17T05:42:07.048Z,93636.14
2018-04-17T05:44:33.874Z,93633.67
2018-04-17T05:47:00.243Z,93636.27
2018-04-17T05:49:26.861Z,93638.15
2018-04-17T05:51:53.329Z,93642.09
2018-04-17T05:54:19.680Z,93638.48
2018-04-17T05:56:46.307Z,93643.16
2018-04-17T05:59:12.801Z,93648.04
2018-04-17T06:01:39.258Z,93648.09
2018-04-17T06:04:05.733Z,93650.67
2018-04-17T06:06:32.484Z,93656.35
2018-04-17T06:08:59.002Z,93663.22
2018-04-17T06:11:25.454Z,93666.56
2018-04-17T06:13:51.820Z,93663.05
2018-04-17T06:16:18.156Z,93659.55
2018-04-17T06:18:44.752Z,93664.66
2018-04-17T06:21:11.457Z,93672.97
2018-04-17T06:23:38.113Z,93666.48
2018-04-17T06:26:04.560Z,93670.84
2018-04-17T06:28:31.037Z,93674.02
2018-04-17T06:30:57.497Z,93677.70
2018-04-17T06:33:23.941Z,93679.75
2018-04-17T06:35:50.380Z,93690.80
2018-04-17T06:38:17.102Z,93683.62
2018-04-17T06:40:43.585Z,93689.36
2018-04-17T06:43:09.951Z,93688.95
2018-04-17T06:45:36.366Z,93686.89
2018-04-17T06:48:02.821Z,93683.52
2018-04-17T06:50:29.297Z,93686.22
2018-04-17T06:52:55.632Z,93680.58
2018-04-17T06:55:22.137Z,93682.89
2018-04-17T06:57:48.519Z,93683.11
2018-04-17T07:00:15.038Z,93684.56
2018-04-17T07:02:41.378Z,93687.44
2018-04-17T07:05:07.744Z,93691.72
2018-04-17T07:07:34.112Z,93694.67
2018-04-17T07:10:00.537Z,93693.02
2018-04-17T07:12:26.862Z,93686.28
2018-04-17T07:14:53.196Z,93695.43
2018-04-17T07:17:19.687Z,93689.86
2018-04-17T07:19:46.235Z,93691.46
2018-04-17T07:22:12.565Z,93695.17
2018-04-17T07:24:39.045Z,93692.50
2018-04-17T07:27:05.381Z,93694.77
2018-04-17T07:29:31.820Z,93691.04
2018-04-17T07:31:58.259Z,93693.13
2018-04-17T07:34:24.662Z,93699.05
2018-04-17T07:36:51.211Z,93689.22
2018-04-17T07:39:17.692Z,93690.63
2018-04-17T07:41:44.192Z,93693.83
2018-04-17T07:44:10.802Z,93695.79
2018-04-17T07:46:37.212Z,93695.68
2018-04-17T07:49:03.751Z,93691.92
2018-04-17T07:51:30.172Z,93707.65
2018-04-17T07:53:56.657Z,93699.98
2018-04-17T07:56:23.011Z,93706.03
2018-04-17T07:58:49.469Z,93709.59
2018-04-17T08:01:16.089Z,93700.61
2018-04-17T08:03:42.415Z,93700.38
2018-04-17T08:06:08.758Z,93694.58
2018-04-17T08:08:35.188Z,93687.73
2018-04-17T08:11:01.546Z,93693.44
2018-04-17T08:13:27.900Z,93698.16
2018-04-17T08:15:54.358Z,93694.89
2018-04-17T08:18:20.779Z,93701.47
2018-04-17T08:20:47.193Z,93701.17
2018-04-17T08:23:13.612Z,93700.88
2018-04-17T08:25:40.040Z,93704.66
2018-04-17T08:28:06.618Z,93700.45
2018-04-17T08:30:33.084Z,93702.38
2018-04-17T08:32:59.470Z,93705.69
2018-04-17T08:35:25.848Z,93700.02
2018-04-17T08:37:52.249Z,93700.23
2018-04-17T08:40:18.709Z,93701.34
2018-04-17T08:42:45.198Z,93699.58
2018-04-17T08:45:11.613Z,93695.84
2018-04-17T08:47:38.249Z,93687.34
2018-04-17T08:50:04.764Z,93694.23
2018-04-17T08:52:31.268Z,93691.38
2018-04-17T08:54:57.686Z,93692.34
2018-04-17T08:57:24.094Z,93688.35
2018-04-17T08:59:50.659Z,93691.86
2018-04-17T09:02:17.047Z,93686.70
2018-04-17T09:04:43.499Z,93691.50
2018-04-17T09:07:09.913Z,93690.04
2018-04-17T09:09:36.353Z,93696.11
2018-04-17T09:12:02.838Z,93691.41
2018-04-17T09:14:29.321Z,93694.55
2018-04-17T09:16:55.852Z,93691.97
2018-04-17T09:19:22.256Z,93688.80
2018-04-17T09:21:48.645Z,93683.02
2018-04-17T09:24:15.169Z,93684.78
2018-04-17T09:26:41.559Z,93678.02
2018-04-17T09:29:08.042Z,93677.11
2018-04-17T09:31:34.462Z,93676.44
2018-04-17T09:34:00.833Z,93667.02
2018-04-17T09:36:27.242Z,93671.96
2018-04-17T09:38:53.669Z,93664.62
2018-04-17T09:41:20.040Z,93662.46
2018-04-17T09:43:46.461Z,93654.55
2018-04-17T09:46:12.799Z,93655.98
2018-04-17T09:48:39.134Z,93654.76
2018-04-17T09:51:05.572Z,93650.49
2018-04-17T09:53:31.994Z,93648.65
2018-04-17T09:55:58.480Z,93645.18
2018-04-17T09:58:24.928Z,93638.99
2018-04-17T10:00:57.361Z,93643.10
2018-04-17T10:03:23.782Z,93637.36
2018-04-17T10:05:50.212Z,93639.33
2018-04-17T10:08:16.644Z,93636.50
2018-04-17T10:10:43.179Z,93637.86
2018-04-17T10:13:09.619Z,93634.02
2018-04-17T10:15:36.088Z,93634.44
2018-04-17T10:18:02.543Z,93632.20
2018-04-17T10:20:29.122Z,93631.44
2018-04-17T10:22:55.486Z,93627.42
2018-04-17T10:25:21.876Z,93630.95
2018-04-17T10:27:48.315Z,93631.57
2018-04-17T10:30:14.869Z,93625.41
2018-04-17T10:32:41.290Z,93625.56
2018-04-17T10:35:07.775Z,93629.87
2018-04-17T10:37:34.290Z,93625.83
2018-04-17T10:40:00.736Z,93631.16
2018-04-17T10:42:27.208Z,93624.91
2018-04-17T10:44:53.621Z,93627.05
2018-04-17T10:47:20.018Z,93622.30
2018-04-17T10:49:46.513Z,93626.05
2018-04-17T10:52:12.850Z,93624.23
2018-04-17T10:54:39.173Z,93622.58
2018-04-17T10:57:05.602Z,93620.48
2018-04-17T10:59:32.020Z,93623.28
2018-04-17T11:01:58.431Z,93625.14
2018-04-17T11:04:24.794Z,93626.28
2018-04-17T11:06:51.185Z,93618.12
2018-04-17T11:09:17.621Z,93620.71
2018-04-17T11:11:44.001Z,93618.42
2018-04-17T11:14:10.353Z,93616.42
2018-04-17T11:16:36.796Z,93611.73
2018-04-17T11:19:03.304Z,93606.98
2018-04-17T11:21:29.669Z,93609.90
2018-04-17T11:23:56.059Z,93612.79
2018-04-17T11:26:22.467Z,93616.23
2018-04-17T11:28:48.868Z,93608.11
2018-04-17T11:31:15.354Z,93606.61
2018-04-17T11:33:41.762Z,93598.28
2018-04-17T11:36:08.126Z,93595.95
2018-04-17T11:38:34.491Z,93596.36
2018-04-17T11:41:00.931Z,93589.74
2018-04-17T11:43:27.366Z,93584.44
2018-04-17T11:45:53.730Z,93588.31
2018-04-17T11:48:20.224Z,93594.64
2018-04-17T11:50:46.632Z,93598.77
2018-04-17T11:53:12.976Z,93584.91
2018-04-17T11:55:39.441Z,93592.66
2018-04-17T11:58:05.827Z,93588.52
2018-04-17T12:00:32.301Z,93588.69
2018-04-17T12:02:58.741Z,93600.58
2018-04-17T12:05:25.256Z,93595.91
2018-04-17T12:07:51.693Z,93602.24
2018-04-17T12:10:19.174Z,93596.41
2018-04-17T12:12:46.077Z,93597.53
2018-04-17T12:15:12.501Z,93596.41
2018-04-17T12:17:38.866Z,93612.29
2018-04-17T12:20:05.314Z,93590.37
2018-04-17T12:22:31.703Z,93604.79
2018-04-17T12:24:58.293Z,93597.53
2018-04-17T12:27:24.613Z,93589.05
2018-04-17T12:29:51.034Z,93587.66
2018-04-17T12:32:17.493Z,93585.59
2018-04-17T12:34:43.933Z,93587.88
2018-04-17T12:37:10.298Z,93585.86
2018-04-17T12:39:36.775Z,93582.36
2018-04-17T12:42:03.232Z,93582.60
2018-04-17T12:44:29.674Z,93589.03
2018-04-17T12:46:56.050Z,93589.20
2018-04-17T12:49:22.552Z,93583.00
2018-04-17T12:51:50.121Z,93586.75
2018-04-17T12:54:16.676Z,93582.17
2018-04-17T12:56:43.133Z,93579.38
2018-04-17T12:59:09.555Z,93581.70
2018-04-17T13:01:36.050Z,93580.33
2018-04-17T13:04:03.268Z,93583.42
2018-04-17T13:06:29.645Z,93581.36
2018-04-17T13:08:56.131Z,93585.06
2018-04-17T13:11:23.013Z,93587.98
2018-04-17T13:13:49.409Z,93585.32
2018-04-17T13:16:15.915Z,93589.31
2018-04-17T13:18:42.483Z,93589.14
2018-04-17T13:21:08.955Z,93582.38
2018-04-17T13:23:35.357Z,93577.92
2018-04-17T13:26:01.683Z,93574.27
2018-04-17T13:28:28.088Z,93572.71
2018-04-17T13:30:54.565Z,93567.70
2018-04-17T13:33:20.909Z,93557.58
2018-04-17T13:35:47.324Z,93565.05
2018-04-17T13:38:13.822Z,93578.95
2018-04-17T13:40:40.318Z,93571.80
2018-04-17T13:43:06.794Z,93567.92
2018-04-17T13:45:33.188Z,93565.76
2018-04-17T13:47:59.535Z,93566.83
2018-04-17T13:50:26.079Z,93566.86
2018-04-17T13:52:52.571Z,93568.39
2018-04-17T13:55:18.950Z,93564.12
2018-04-17T13:57:45.384Z,93557.84
2018-04-17T14:00:11.979Z,93559.81
2018-04-17T14:02:38.419Z,93566.27
2018-04-17T14:05:04.838Z,93569.24
2018-04-17T14:07:31.296Z,93562.97
2018-04-17T14:09:57.811Z,93571.02
2018-04-17T14:12:24.186Z,93568.63
2018-04-17T14:14:50.675Z,93578.31
2018-04-17T14:17:17.130Z,93578.73
2018-04-17T14:19:43.511Z,93586.59
2018-04-17T14:22:09.948Z,93581.53
2018-04-17T14:24:36.471Z,93586.81
2018-04-17T14:27:02.909Z,93579.27
2018-04-17T14:29:29.485Z,93586.42
2018-04-17T14:31:55.912Z,93593.26
2018-04-17T14:34:22.295Z,93596.18
2018-04-17T14:36:48.760Z,93597.97
2018-04-17T14:39:15.330Z,93598.42
2018-04-17T14:41:41.804Z,93603.12
2018-04-17T14:44:08.423Z,93606.29
2018-04-17T14:46:34.853Z,93605.87
2018-04-17T14:49:01.236Z,93612.33
2018-04-17T14:51:27.752Z,93611.28
2018-04-17T14:53:54.184Z,93616.70
2018-04-17T14:56:20.535Z,93627.00
2018-04-17T14:58:46.922Z,93633.83
2018-04-17T15:01:13.470Z,93633.78
2018-04-17T15:03:39.908Z,93631.97
2018-04-17T15:06:06.307Z,93629.78
2018-04-17T15:08:32.717Z,93621.31
2018-04-17T15:10:59.177Z,93634.16
2018-04-17T15:13:25.630Z,93644.28
2018-04-17T15:15:52.086Z,93637.43
2018-04-17T15:18:18.489Z,93640.69
2018-04-17T15:20:44.956Z,93650.77
2018-04-17T15:23:11.928Z,93651.85
2018-04-17T15:25:38.363Z,93656.05
2018-04-17T15:28:04.773Z,93656.88
2018-04-17T15:30:31.257Z,93644.28
2018-04-17T15:32:58.213Z,93648.92
2018-04-17T15:35:32.212Z,93655.94
2018-04-17T15:37:58.869Z,93659.89
2018-04-17T15:40:25.391Z,93664.53
2018-04-17T15:42:51.955Z,93668.41
2018-04-17T15:45:18.589Z,93669.70
2018-04-17T15:47:45.153Z,93667.97
2018-04-17T15:50:11.812Z,93673.67
2018-04-17T15:52:38.767Z,93681.91
2018-04-17T15:55:05.302Z,93683.56
2018-04-17T15:57:31.771Z,93685.02
2018-04-17T15:59:58.216Z,93691.88
2018-04-17T16:02:24.678Z,93692.80
2018-04-17T16:04:51.238Z,93693.48
2018-04-17T16:07:17.720Z,93701.29
2018-04-17T16:09:44.238Z,93705.89
2018-04-17T16:12:10.968Z,93705.53
2018-04-17T16:14:37.532Z,93710.69
2018-04-17T16:17:04.111Z,93709.42
2018-04-17T16:19:30.808Z,93709.38
2018-04-17T16:21:57.529Z,93708.23
2018-04-17T16:24:24.041Z,93710.67
2018-04-17T16:26:51.268Z,93710.60
2018-04-17T16:29:18.169Z,93707.08
2018-04-17T16:31:44.638Z,93715.81
2018-04-17T16:34:11.135Z,93723.02
2018-04-17T16:36:37.623Z,93727.38
2018-04-17T16:39:07.129Z,93730.51
2018-04-17T16:41:33.781Z,93730.45
2018-04-17T16:44:00.277Z,93730.98
2018-04-17T16:46:26.991Z,93729.72
2018-04-17T16:48:53.686Z,93733.14
2018-04-17T16:51:21.442Z,93730.22
2018-04-17T16:53:48.136Z,93740.41
2018-04-17T16:56:15.244Z,93747.98
2018-04-17T16:58:41.887Z,93757.25
2018-04-17T17:01:08.880Z,93758.75
2018-04-17T17:03:36.037Z,93761.63
2018-04-17T17:06:02.989Z,93763.67
2018-04-17T17:08:29.517Z,93763.38
2018-04-17T17:10:56.355Z,93767.73
2018-04-17T17:13:22.828Z,93779.80
2018-04-17T17:15:49.234Z,93778.79
2018-04-17T17:18:15.951Z,93778.00
2018-04-17T17:20:42.567Z,93788.38
2018-04-17T17:23:09.070Z,93788.02
2018-04-17T17:25:35.625Z,93795.33
2018-04-17T17:28:02.032Z,93802.06
2018-04-17T17:30:28.571Z,93810.84
2018-04-17T17:32:55.129Z,93805.62
2018-04-17T17:35:21.552Z,93813.14
2018-04-17T17:37:48.116Z,93816.45
2018-04-17T17:40:14.604Z,93817.59
2018-04-17T17:42:41.777Z,93816.59
2018-04-17T17:45:08.531Z,93806.61
2018-04-17T17:47:35.042Z,93811.16
2018-04-17T17:50:01.682Z,93810.34
2018-04-17T17:52:28.336Z,93824.59
2018-04-17T17:54:54.754Z,93826.83
2018-04-17T17:57:21.100Z,93823.77
2018-04-17T17:59:47.575Z,93826.22
2018-04-17T18:02:14.096Z,93836.17
2018-04-17T18:04:40.473Z,93839.18
2018-04-17T18:07:06.909Z,93839.88
2018-04-17T18:09:33.458Z,93845.54
2018-04-17T18:11:59.939Z,93843.85
2018-04-17T18:14:26.591Z,93842.83
2018-04-17T18:16:53.316Z,93845.92
2018-04-17T18:19:19.821Z,93855.38
2018-04-17T18:21:46.321Z,93856.72
2018-04-17T18:24:12.815Z,93859.43
2018-04-17T18:26:39.240Z,93863.03
2018-04-17T18:29:05.597Z,93863.16
2018-04-17T18:31:32.066Z,93866.67
2018-04-17T18:33:58.518Z,93876.47
2018-04-17T18:36:25.144Z,93874.20
2018-04-17T18:38:51.679Z,93879.20
2018-04-17T18:41:18.191Z,93881.81
2018-04-17T18:43:45.179Z,93881.07
2018-04-17T18:46:11.779Z,93879.50
2018-04-17T18:48:38.305Z,93884.61
2018-04-17T18:51:04.831Z,93878.91
2018-04-17T18:53:31.850Z,93881.70
2018-04-17T18:55:58.763Z,93883.27
2018-04-17T18:58:25.380Z,93886.28
2018-04-17T19:00:52.099Z,93888.63
2018-04-17T19:03:18.647Z,93895.21
2018-04-17T19:05:45.214Z,93889.64
2018-04-17T19:08:11.738Z,93891.78
2018-04-17T19:10:38.325Z,93891.11
2018-04-17T19:13:04.925Z,93892.44
2018-04-17T19:15:31.549Z,93896.35
2018-04-17T19:17:58.036Z,93891.71
2018-04-17T19:20:24.698Z,93895.68
2018-04-17T19:22:51.215Z,93894.55
2018-04-17T19:25:17.630Z,93897.13
2018-04-17T19:27:44.128Z,93894.80
2018-04-17T19:30:11.135Z,93894.50
2018-04-17T19:32:37.563Z,93899.44
2018-04-17T19:35:03.977Z,93905.96
2018-04-17T19:37:30.424Z,93905.04
2018-04-17T19:39:57.731Z,93908.11
2018-04-17T19:42:24.195Z,93905.47
2018-04-17T19:44:50.704Z,93910.02
2018-04-17T19:47:17.219Z,93906.38
2018-04-17T19:49:43.817Z,93905.96
2018-04-17T19:52:10.270Z,93900.66
2018-04-17T19:54:36.670Z,93903.22
2018-04-17T19:57:03.143Z,93909.53
2018-04-17T19:59:29.557Z,93907.34
2018-04-17T20:01:56.069Z,93906.27
2018-04-17T20:04:22.449Z,93908.30
2018-04-17T20:06:49.000Z,93900.80
2018-04-17T20:09:15.453Z,93901.86
2018-04-17T20:11:41.984Z,93904.33
2018-04-17T20:14:08.517Z,93901.89
2018-04-17T20:16:34.960Z,93895.48
2018-04-17T20:19:01.400Z,93899.27
2018-04-17T20:21:27.962Z,93902.06
2018-04-17T20:23:54.366Z,93896.20
2018-04-17T20:26:20.872Z,93902.41
2018-04-17T20:28:47.423Z,93904.80
2018-04-17T20:31:14.467Z,93899.34
2018-04-17T20:33:42.872Z,93907.69
2018-04-17T20:36:12.550Z,93908.05
2018-04-17T20:38:39.591Z,93909.33
2018-04-17T20:41:06.280Z,93913.10
2018-04-17T20:43:32.862Z,93908.66
2018-04-17T20:45:59.318Z,93913.52
2018-04-17T20:48:26.144Z,93918.30
2018-04-17T20:50:52.871Z,93920.28
2018-04-17T20:53:19.412Z,93924.45
2018-04-17T20:55:45.864Z,93931.94
2018-04-17T20:58:12.595Z,93934.20
2018-04-17T21:00:39.096Z,93932.07
2018-04-17T21:03:05.512Z,93938.56
2018-04-17T21:05:31.972Z,93940.08
2018-04-17T21:07:58.441Z,93938.99
2018-04-17T21:10:24.880Z,93932.38
2018-04-17T21:12:51.236Z,93944.33
2018-04-17T21:15:17.668Z,93945.28
2018-04-17T21:17:44.004Z,93938.80
2018-04-17T21:20:10.368Z,93942.64
2018-04-17T21:22:36.825Z,93938.82
2018-04-17T21:25:03.250Z,93938.56
2018-04-17T21:27:29.866Z,93948.17
2018-04-17T21:29:56.409Z,93948.95
2018-04-17T21:32:22.747Z,93952.36
2018-04-17T21:34:49.313Z,93939.78
2018-04-17T21:37:15.702Z,93944.43
2018-04-17T21:39:42.067Z,93947.50
2018-04-17T21:42:08.524Z,93947.88
2018-04-17T21:44:34.869Z,93952.36
2018-04-17T21:47:01.920Z,93951.94
2018-04-17T21:49:28.370Z,93953.24
2018-04-17T21:51:54.859Z,93954.22
2018-04-17T21:54:21.233Z,93948.75
2018-04-17T21:56:47.855Z,93951.91
2018-04-17T21:59:14.303Z,93959.07
2018-04-17T22:01:40.624Z,93957.23
2018-04-17T22:04:07.039Z,93964.74
2018-04-17T22:06:33.376Z,93959.73
2018-04-17T22:08:59.694Z,93961.03
2018-04-17T22:11:26.246Z,93970.97
2018-04-17T22:13:52.690Z,93970.08
2018-04-17T22:16:19.330Z,93971.84
2018-04-17T22:18:45.783Z,93973.70
2018-04-17T22:21:12.397Z,93975.40
2018-04-17T22:23:38.887Z,93979.08
2018-04-17T22:26:05.615Z,93981.46
2018-04-17T22:28:31.927Z,93974.31
2018-04-17T22:30:58.620Z,93975.66
2018-04-17T22:33:25.391Z,93969.50
2018-04-17T22:35:51.978Z,93980.37
2018-04-17T22:38:18.432Z,93978.48
2018-04-17T22:40:44.912Z,93980.02
2018-04-17T22:43:11.331Z,93973.34
2018-04-17T22:45:37.797Z,93979.95
2018-04-17T22:48:04.384Z,93976.22
2018-04-17T22:50:31.181Z,93978.67
2018-04-17T22:52:57.611Z,93975.38
2018-04-17T22:55:23.977Z,93985.02
2018-04-17T22:57:50.414Z,93983.09
2018-04-17T23:00:16.869Z,93974.95
2018-04-17T23:02:43.315Z,93975.38
2018-04-17T23:05:09.753Z,93978.80
2018-04-17T23:07:36.102Z,93981.58
2018-04-17T23:10:03.476Z,93985.59
2018-04-17T23:12:29.750Z,93981.02
2018-04-17T23:14:56.172Z,93984.71
2018-04-17T23:17:22.505Z,93987.94
2018-04-17T23:19:48.865Z,93983.02
2018-04-17T23:22:15.343Z,93978.37
2018-04-17T23:24:41.660Z,93977.13
2018-04-17T23:27:08.017Z,93981.97
2018-04-17T23:29:34.491Z,93984.34
2018-04-17T23:32:00.905Z,93989.34
2018-04-17T23:34:27.235Z,93989.84
2018-04-17T23:36:53.586Z,93990.80
2018-04-17T23:39:19.868Z,93992.62
2018-04-17T23:41:46.307Z,93992.09
2018-04-17T23:44:12.682Z,93983.42
2018-04-17T23:46:39.026Z,93988.39
2018-04-17T23:49:05.329Z,93990.64
2018-04-17T23:51:31.959Z,93994.80
2018-04-17T23:53:58.342Z,93996.13
2018-04-17T23:56:24.702Z,93994.03
2018-04-17T23:58:51.065Z,93992.61
